createdAt,value
2018-09-15T00:02:29.420Z,79.08
2018-09-15T00:04:58.801Z,79.08
2018-09-15T00:07:28.201Z,78.72
2018-09-15T00:09:57.880Z,78.39
2018-09-15T00:12:27.212Z,78.44
2018-09-15T00:14:56.390Z,78.23
2018-09-15T00:17:25.783Z,77.97
2018-09-15T00:19:55.183Z,78.86
2018-09-15T00:22:24.120Z,78.69
2018-09-15T00:24:53.428Z,78.79
2018-09-15T00:27:22.826Z,78.80
2018-09-15T00:29:51.900Z,78.50
2018-09-15T00:32:20.915Z,78.47
2018-09-15T00:34:50.435Z,79.15
2018-09-15T00:37:19.516Z,78.87
2018-09-15T00:39:48.953Z,78.89
2018-09-15T00:42:18.116Z,78.15
2018-09-15T00:44:47.235Z,78.21
2018-09-15T00:47:16.677Z,78.75
2018-09-15T00:49:46.133Z,78.67
2018-09-15T00:52:15.107Z,77.80
2018-09-15T00:54:44.516Z,77.82
2018-09-15T00:57:13.724Z,78.65
2018-09-15T00:59:43.169Z,78.56
2018-09-15T01:02:12.380Z,77.88
2018-09-15T01:04:41.683Z,77.69
2018-09-15T01:07:17.201Z,78.32
2018-09-15T01:09:46.419Z,78.59
2018-09-15T01:12:15.735Z,78.31
2018-09-15T01:14:45.208Z,78.15
2018-09-15T01:17:14.374Z,78.03
2018-09-15T01:19:43.705Z,78.21
2018-09-15T01:22:12.705Z,78.55
2018-09-15T01:24:42.453Z,78.14
2018-09-15T01:27:11.501Z,78.02
2018-09-15T01:29:41.133Z,78.22
2018-09-15T01:32:10.395Z,78.36
2018-09-15T01:34:39.462Z,78.31
2018-09-15T01:37:08.846Z,78.17
2018-09-15T01:39:38.059Z,78.78
2018-09-15T01:42:08.916Z,78.73
2018-09-15T01:44:38.154Z,78.55
2018-09-15T01:47:07.244Z,78.31
2018-09-15T01:49:36.422Z,78.65
2018-09-15T01:52:05.829Z,78.80
2018-09-15T01:54:35.344Z,78.90
2018-09-15T01:57:04.457Z,78.66
2018-09-15T01:59:33.583Z,79.18
2018-09-15T02:02:02.775Z,78.69
2018-09-15T02:04:31.815Z,78.75
2018-09-15T02:07:01.070Z,78.74
2018-09-15T02:09:30.142Z,79.09
2018-09-15T02:12:02.244Z,79.82
2018-09-15T02:14:31.302Z,79.26
2018-09-15T02:17:00.239Z,79.88
2018-09-15T02:19:29.347Z,80.19
2018-09-15T02:21:58.705Z,80.51
2018-09-15T02:24:27.963Z,80.45
2018-09-15T02:26:57.145Z,79.95
2018-09-15T02:29:26.852Z,80.41
2018-09-15T02:31:56.162Z,80.63
2018-09-15T02:34:25.170Z,80.14
2018-09-15T02:36:55.115Z,80.60
2018-09-15T02:39:24.291Z,79.88
2018-09-15T02:41:53.495Z,80.39
2018-09-15T02:44:22.706Z,80.05
2018-09-15T02:46:52.054Z,79.98
2018-09-15T02:49:21.434Z,80.12
2018-09-15T02:51:50.809Z,79.39
2018-09-15T02:54:19.863Z,79.35
2018-09-15T02:56:48.914Z,79.10
2018-09-15T02:59:18.085Z,79.65
2018-09-15T03:01:47.309Z,79.48
2018-09-15T03:04:16.485Z,79.47
2018-09-15T03:06:45.669Z,78.59
2018-09-15T03:09:14.762Z,78.41
2018-09-15T03:11:44.298Z,78.84
2018-09-15T03:14:13.899Z,79.77
2018-09-15T03:16:43.098Z,79.29
2018-09-15T03:19:12.208Z,79.67
2018-09-15T03:21:41.908Z,79.16
2018-09-15T03:24:11.132Z,79.93
2018-09-15T03:26:40.307Z,79.82
2018-09-15T03:29:09.291Z,78.89
2018-09-15T03:31:38.525Z,78.92
2018-09-15T03:34:07.884Z,79.28
2018-09-15T03:36:37.134Z,79.21
2018-09-15T03:39:08.626Z,79.56
2018-09-15T03:41:37.709Z,79.25
2018-09-15T03:44:07.128Z,79.24
2018-09-15T03:46:36.166Z,79.40
2018-09-15T03:49:05.362Z,79.58
2018-09-15T03:51:34.461Z,79.81
2018-09-15T03:54:03.603Z,79.84
2018-09-15T03:56:33.089Z,80.11
2018-09-15T03:59:02.215Z,79.49
2018-09-15T04:01:31.346Z,79.69
2018-09-15T04:04:00.453Z,79.69
2018-09-15T04:06:29.744Z,79.75
2018-09-15T04:08:58.755Z,79.28
2018-09-15T04:11:28.310Z,79.20
2018-09-15T04:13:57.973Z,79.40
2018-09-15T04:16:27.369Z,79.11
2018-09-15T04:18:56.404Z,79.33
2018-09-15T04:21:25.453Z,79.27
2018-09-15T04:23:54.502Z,79.02
2018-09-15T04:26:23.702Z,78.92
2018-09-15T04:28:52.644Z,78.40
2018-09-15T04:31:21.894Z,78.14
2018-09-15T04:33:51.709Z,78.33
2018-09-15T04:36:21.264Z,78.87
2018-09-15T04:38:50.338Z,78.92
2018-09-15T04:41:19.461Z,78.12
2018-09-15T04:43:49.062Z,78.00
2018-09-15T04:46:18.262Z,78.37
2018-09-15T04:48:47.167Z,78.38
2018-09-15T04:51:16.711Z,78.18
2018-09-15T04:53:45.782Z,78.30
2018-09-15T04:56:16.052Z,78.02
2018-09-15T04:58:45.104Z,78.02
2018-09-15T05:01:14.468Z,77.67
2018-09-15T05:03:43.939Z,77.30
2018-09-15T05:06:13.104Z,77.51
2018-09-15T05:08:42.234Z,76.97
2018-09-15T05:11:11.520Z,77.62
2018-09-15T05:13:40.881Z,77.64
2018-09-15T05:16:10.297Z,78.08
2018-09-15T05:18:39.890Z,77.67
2018-09-15T05:21:09.903Z,77.80
2018-09-15T05:23:40.121Z,77.78
2018-09-15T05:26:09.207Z,78.04
2018-09-15T05:28:38.419Z,78.67
2018-09-15T05:31:07.512Z,79.19
2018-09-15T05:33:36.581Z,79.47
2018-09-15T05:36:05.711Z,79.69
2018-09-15T05:38:34.685Z,79.75
2018-09-15T05:41:03.790Z,80.00
2018-09-15T05:43:32.756Z,79.95
2018-09-15T05:46:01.725Z,79.91
2018-09-15T05:48:30.917Z,79.81
2018-09-15T05:51:00.463Z,79.50
2018-09-15T05:53:29.599Z,79.80
2018-09-15T05:55:58.633Z,80.21
2018-09-15T05:58:27.898Z,80.09
2018-09-15T06:00:57.533Z,79.99
2018-09-15T06:03:27.400Z,80.14
2018-09-15T06:05:56.553Z,80.39
2018-09-15T06:08:25.797Z,80.69
2018-09-15T06:10:54.871Z,80.72
2018-09-15T06:13:24.198Z,80.77
2018-09-15T06:15:53.258Z,80.77
2018-09-15T06:18:22.496Z,80.81
2018-09-15T06:20:51.628Z,80.82
2018-09-15T06:23:20.883Z,80.89
2018-09-15T06:25:50.401Z,80.65
2018-09-15T06:28:19.479Z,80.50
2018-09-15T06:30:48.667Z,80.37
2018-09-15T06:33:18.013Z,80.18
2018-09-15T06:35:47.003Z,80.36
2018-09-15T06:38:16.056Z,80.39
2018-09-15T06:40:45.067Z,80.02
2018-09-15T06:43:14.195Z,80.06
2018-09-15T06:45:44.207Z,79.77
2018-09-15T06:48:14.306Z,79.30
2018-09-15T06:50:43.989Z,79.24
2018-09-15T06:53:13.550Z,78.30
2018-09-15T06:55:43.818Z,78.07
2018-09-15T06:58:13.306Z,77.61
2018-09-15T07:00:43.378Z,77.49
2018-09-15T07:03:13.083Z,78.10
2018-09-15T07:05:42.303Z,77.03
2018-09-15T07:08:11.374Z,76.95
2018-09-15T07:10:40.653Z,77.33
2018-09-15T07:13:09.925Z,77.57
2018-09-15T07:15:38.963Z,77.08
2018-09-15T07:18:08.514Z,76.42
2018-09-15T07:20:37.519Z,77.04
2018-09-15T07:23:06.847Z,75.98
2018-09-15T07:25:35.960Z,74.96
2018-09-15T07:28:05.266Z,75.14
2018-09-15T07:30:34.233Z,74.63
2018-09-15T07:33:03.411Z,75.35
2018-09-15T07:35:32.554Z,74.36
2018-09-15T07:38:01.728Z,74.99
2018-09-15T07:40:31.188Z,74.27
2018-09-15T07:43:00.908Z,74.81
2018-09-15T07:45:30.163Z,75.09
2018-09-15T07:47:59.165Z,74.28
2018-09-15T07:50:28.283Z,73.81
2018-09-15T07:52:57.488Z,73.46
2018-09-15T07:55:26.540Z,73.04
2018-09-15T07:57:55.817Z,72.33
2018-09-15T08:00:25.770Z,72.78
2018-09-15T08:02:55.741Z,71.19
2018-09-15T08:05:24.870Z,71.51
2018-09-15T08:07:54.032Z,71.32
2018-09-15T08:10:23.184Z,70.84
2018-09-15T08:12:52.343Z,71.53
2018-09-15T08:15:21.507Z,70.86
2018-09-15T08:17:50.542Z,69.83
2018-09-15T08:20:19.563Z,69.57
2018-09-15T08:22:48.823Z,68.76
2018-09-15T08:25:17.908Z,68.13
2018-09-15T08:27:46.843Z,67.24
2018-09-15T08:30:16.194Z,66.21
2018-09-15T08:32:45.709Z,67.04
2018-09-15T08:35:15.518Z,67.18
2018-09-15T08:37:44.618Z,65.90
2018-09-15T08:40:13.992Z,66.40
2018-09-15T08:42:49.360Z,64.56
2018-09-15T08:45:19.644Z,64.66
2018-09-15T08:47:50.098Z,64.26
2018-09-15T08:50:19.885Z,64.55
2018-09-15T08:52:48.981Z,64.14
2018-09-15T08:55:17.984Z,64.05
2018-09-15T08:57:46.966Z,64.19
2018-09-15T09:00:16.118Z,63.83
2018-09-15T09:02:45.965Z,63.64
2018-09-15T09:05:15.139Z,62.72
2018-09-15T09:07:44.116Z,62.23
2018-09-15T09:10:13.105Z,61.62
2018-09-15T09:12:42.483Z,61.44
2018-09-15T09:15:11.608Z,60.61
2018-09-15T09:17:40.857Z,59.95
2018-09-15T09:20:10.161Z,59.68
2018-09-15T09:22:39.506Z,59.72
2018-09-15T09:25:08.894Z,59.54
2018-09-15T09:27:37.962Z,59.99
2018-09-15T09:30:07.238Z,59.22
2018-09-15T09:32:36.407Z,59.10
2018-09-15T09:35:05.540Z,59.14
2018-09-15T09:37:34.738Z,59.04
2018-09-15T09:40:04.130Z,60.08
2018-09-15T09:42:33.381Z,59.70
2018-09-15T09:45:02.611Z,58.97
2018-09-15T09:47:31.788Z,59.00
2018-09-15T09:50:00.971Z,58.84
2018-09-15T09:52:30.895Z,58.34
2018-09-15T09:54:59.928Z,58.78
2018-09-15T09:57:29.229Z,58.47
2018-09-15T09:59:58.251Z,58.59
2018-09-15T10:02:27.387Z,58.85
2018-09-15T10:04:56.529Z,59.08
2018-09-15T10:07:25.791Z,59.76
2018-09-15T10:09:54.979Z,59.71
2018-09-15T10:12:24.035Z,59.10
2018-09-15T10:14:53.336Z,59.25
2018-09-15T10:17:22.535Z,59.18
2018-09-15T10:19:51.708Z,59.53
2018-09-15T10:22:20.933Z,59.11
2018-09-15T10:24:50.324Z,58.88
2018-09-15T10:27:19.819Z,58.62
2018-09-15T10:29:48.981Z,58.30
2018-09-15T10:32:18.210Z,57.62
2018-09-15T10:34:47.920Z,57.74
2018-09-15T10:37:17.157Z,57.59
2018-09-15T10:39:46.574Z,57.82
2018-09-15T10:42:15.650Z,57.07
2018-09-15T10:44:45.179Z,56.79
2018-09-15T10:47:14.717Z,57.10
2018-09-15T10:49:44.644Z,56.20
2018-09-15T10:52:13.569Z,56.17
2018-09-15T10:54:42.788Z,56.54
2018-09-15T10:57:11.959Z,55.95
2018-09-15T10:59:41.153Z,56.16
2018-09-15T11:02:14.910Z,55.68
2018-09-15T11:04:45.760Z,54.55
2018-09-15T11:07:15.616Z,53.95
2018-09-15T11:09:45.193Z,54.58
2018-09-15T11:12:14.333Z,53.85
2018-09-15T11:14:43.621Z,54.79
2018-09-15T11:17:12.615Z,54.98
2018-09-15T11:19:41.908Z,54.67
2018-09-15T11:22:10.803Z,55.00
2018-09-15T11:24:39.932Z,55.32
2018-09-15T11:27:09.048Z,54.40
2018-09-15T11:29:38.431Z,54.57
2018-09-15T11:32:07.945Z,54.05
2018-09-15T11:34:37.506Z,54.04
2018-09-15T11:37:06.812Z,54.55
2018-09-15T11:39:36.324Z,54.40
2018-09-15T11:42:05.422Z,53.72
2018-09-15T11:44:34.589Z,54.15
2018-09-15T11:47:04.005Z,54.31
2018-09-15T11:49:32.998Z,54.02
2018-09-15T11:52:02.145Z,53.17
2018-09-15T11:54:31.239Z,54.11
2018-09-15T11:57:00.209Z,53.18
2018-09-15T11:59:29.296Z,53.66
2018-09-15T12:01:58.568Z,53.02
2018-09-15T12:04:28.278Z,53.39
2018-09-15T12:06:57.454Z,53.10
2018-09-15T12:09:26.597Z,53.02
2018-09-15T12:11:55.577Z,53.09
2018-09-15T12:14:24.688Z,51.99
2018-09-15T12:16:53.907Z,52.48
2018-09-15T12:19:23.242Z,52.65
2018-09-15T12:21:52.621Z,53.64
2018-09-15T12:24:22.632Z,53.45
2018-09-15T12:26:51.700Z,53.83
2018-09-15T12:29:20.766Z,54.77
2018-09-15T12:31:49.899Z,54.70
2018-09-15T12:34:19.096Z,53.81
2018-09-15T12:36:48.082Z,53.80
2018-09-15T12:39:18.021Z,53.58
2018-09-15T12:41:47.240Z,53.37
2018-09-15T12:44:16.340Z,52.30
2018-09-15T12:46:45.633Z,51.83
2018-09-15T12:49:14.696Z,51.94
2018-09-15T12:51:44.269Z,51.05
2018-09-15T12:54:13.280Z,51.54
2018-09-15T12:56:42.520Z,51.38
2018-09-15T12:59:12.060Z,51.11
2018-09-15T13:01:41.283Z,50.13
2018-09-15T13:04:10.762Z,48.95
2018-09-15T13:06:39.875Z,50.26
2018-09-15T13:09:11.714Z,50.34
2018-09-15T13:11:41.536Z,50.04
2018-09-15T13:14:10.669Z,50.40
2018-09-15T13:16:39.589Z,50.71
2018-09-15T13:19:08.609Z,50.53
2018-09-15T13:21:37.670Z,50.30
2018-09-15T13:24:06.885Z,50.88
2018-09-15T13:26:36.048Z,51.28
2018-09-15T13:29:05.134Z,50.25
2018-09-15T13:31:35.023Z,50.83
2018-09-15T13:34:04.193Z,50.61
2018-09-15T13:36:33.567Z,50.38
2018-09-15T13:39:02.847Z,50.43
2018-09-15T13:41:32.533Z,50.52
2018-09-15T13:44:01.588Z,49.98
2018-09-15T13:46:30.654Z,50.04
2018-09-15T13:48:59.796Z,49.42
2018-09-15T13:51:28.868Z,50.19
2018-09-15T13:53:58.628Z,50.35
2018-09-15T13:56:27.822Z,51.00
2018-09-15T13:58:57.086Z,51.42
2018-09-15T14:01:26.268Z,51.50
2018-09-15T14:03:55.550Z,51.02
2018-09-15T14:06:24.624Z,51.34
2018-09-15T14:08:53.774Z,51.75
2018-09-15T14:11:23.000Z,51.70
2018-09-15T14:13:52.074Z,51.90
2018-09-15T14:16:21.544Z,51.59
2018-09-15T14:18:50.992Z,52.97
2018-09-15T14:21:20.232Z,53.49
2018-09-15T14:23:49.175Z,53.26
2018-09-15T14:26:18.577Z,54.05
2018-09-15T14:28:47.623Z,53.84
2018-09-15T14:31:16.877Z,53.78
2018-09-15T14:33:46.354Z,54.08
2018-09-15T14:36:16.025Z,54.46
2018-09-15T14:38:45.380Z,54.41
2018-09-15T14:41:14.489Z,54.98
2018-09-15T14:43:43.820Z,54.61
2018-09-15T14:46:12.709Z,54.23
2018-09-15T14:48:41.947Z,54.61
2018-09-15T14:51:11.151Z,53.98
2018-09-15T14:53:40.736Z,54.30
2018-09-15T14:56:11.001Z,55.16
2018-09-15T14:58:40.372Z,55.43
2018-09-15T15:01:10.267Z,55.10
2018-09-15T15:03:40.015Z,55.70
2018-09-15T15:06:09.291Z,56.03
2018-09-15T15:08:38.768Z,55.40
2018-09-15T15:11:08.486Z,55.54
2018-09-15T15:13:37.654Z,56.29
2018-09-15T15:16:07.094Z,56.61
2018-09-15T15:18:36.251Z,56.42
2018-09-15T15:21:05.551Z,55.79
2018-09-15T15:23:35.331Z,56.21
2018-09-15T15:26:04.578Z,55.49
2018-09-15T15:28:33.704Z,55.96
2018-09-15T15:31:03.052Z,54.98
2018-09-15T15:33:32.319Z,55.42
2018-09-15T15:36:01.553Z,55.55
2018-09-15T15:38:30.858Z,54.16
2018-09-15T15:41:00.380Z,54.84
2018-09-15T15:43:29.765Z,53.72
2018-09-15T15:45:59.480Z,54.21
2018-09-15T15:48:29.404Z,53.08
2018-09-15T15:50:58.808Z,53.23
2018-09-15T15:53:28.230Z,52.80
2018-09-15T15:55:57.771Z,52.52
2018-09-15T15:58:26.783Z,53.10
2018-09-15T16:00:55.939Z,53.36
2018-09-15T16:03:24.846Z,54.47
2018-09-15T16:05:54.526Z,53.62
2018-09-15T16:08:23.628Z,53.40
2018-09-15T16:10:53.545Z,53.07
2018-09-15T16:13:22.619Z,51.64
2018-09-15T16:15:52.386Z,52.21
2018-09-15T16:18:22.211Z,51.87
2018-09-15T16:20:51.327Z,51.47
2018-09-15T16:23:20.652Z,52.56
2018-09-15T16:25:49.804Z,52.03
2018-09-15T16:28:19.511Z,52.79
2018-09-15T16:30:49.425Z,53.17
2018-09-15T16:33:18.541Z,53.79
2018-09-15T16:35:47.984Z,53.68
2018-09-15T16:38:17.155Z,52.85
2018-09-15T16:40:46.392Z,52.53
2018-09-15T16:43:15.753Z,53.58
2018-09-15T16:45:44.836Z,54.07
2018-09-15T16:48:13.763Z,53.37
2018-09-15T16:50:42.857Z,53.92
2018-09-15T16:53:11.964Z,53.36
2018-09-15T16:55:41.908Z,53.51
2018-09-15T16:58:11.903Z,53.75
2018-09-15T17:00:41.160Z,53.60
2018-09-15T17:03:10.381Z,54.10
2018-09-15T17:05:39.442Z,54.35
2018-09-15T17:08:08.722Z,54.33
2018-09-15T17:10:37.849Z,54.25
2018-09-15T17:13:06.942Z,54.53
2018-09-15T17:15:36.287Z,54.52
2018-09-15T17:18:05.256Z,54.23
2018-09-15T17:20:34.318Z,54.87
2018-09-15T17:23:03.529Z,55.04
2018-09-15T17:25:39.316Z,54.96
2018-09-15T17:28:08.532Z,55.89
2018-09-15T17:30:37.503Z,55.62
2018-09-15T17:33:07.065Z,56.32
2018-09-15T17:35:36.118Z,56.48
2018-09-15T17:38:05.290Z,57.69
2018-09-15T17:40:35.189Z,58.01
2018-09-15T17:43:05.176Z,57.75
2018-09-15T17:45:34.734Z,58.31
2018-09-15T17:48:05.206Z,59.10
2018-09-15T17:50:34.835Z,59.76
2018-09-15T17:53:04.199Z,59.99
2018-09-15T17:55:33.661Z,60.67
2018-09-15T17:58:02.712Z,60.69
2018-09-15T18:00:32.013Z,61.31
2018-09-15T18:03:01.214Z,61.11
2018-09-15T18:05:30.583Z,61.16
2018-09-15T18:07:59.591Z,61.28
2018-09-15T18:10:28.620Z,61.83
2018-09-15T18:12:57.776Z,62.45
2018-09-15T18:15:27.708Z,62.28
2018-09-15T18:17:56.671Z,62.43
2018-09-15T18:20:26.161Z,62.42
2018-09-15T18:22:55.199Z,62.39
2018-09-15T18:25:24.199Z,62.98
2018-09-15T18:27:53.770Z,62.82
2018-09-15T18:30:22.923Z,62.73
2018-09-15T18:32:51.872Z,63.00
2018-09-15T18:35:21.172Z,62.85
2018-09-15T18:37:50.440Z,62.89
2018-09-15T18:40:19.622Z,63.66
2018-09-15T18:42:48.745Z,63.69
2018-09-15T18:45:17.960Z,63.83
2018-09-15T18:47:47.849Z,63.78
2018-09-15T18:50:16.970Z,63.25
2018-09-15T18:52:46.122Z,63.31
2018-09-15T18:55:15.458Z,63.35
2018-09-15T18:57:45.113Z,63.21
2018-09-15T19:00:14.301Z,63.22
2018-09-15T19:02:43.548Z,63.08
2018-09-15T19:05:12.687Z,63.74
2018-09-15T19:07:41.895Z,63.54
2018-09-15T19:10:11.310Z,63.19
2018-09-15T19:12:40.580Z,63.42
2018-09-15T19:15:16.078Z,63.83
2018-09-15T19:17:45.667Z,63.70
2018-09-15T19:20:15.127Z,63.83
2018-09-15T19:22:44.955Z,62.81
2018-09-15T19:25:14.037Z,63.06
2018-09-15T19:27:43.146Z,63.13
2018-09-15T19:30:12.319Z,63.31
2018-09-15T19:32:41.322Z,63.56
2018-09-15T19:35:12.049Z,62.50
2018-09-15T19:37:41.353Z,62.39
2018-09-15T19:40:10.383Z,63.00
2018-09-15T19:42:40.174Z,63.84
2018-09-15T19:45:09.277Z,64.20
2018-09-15T19:47:38.263Z,64.55
2018-09-15T19:50:07.367Z,64.20
2018-09-15T19:52:36.714Z,64.22
2018-09-15T19:55:06.162Z,64.65
2018-09-15T19:57:42.090Z,65.07
2018-09-15T20:00:11.118Z,64.46
2018-09-15T20:02:40.221Z,64.85
2018-09-15T20:05:09.432Z,65.68
2018-09-15T20:07:39.162Z,65.84
2018-09-15T20:10:08.121Z,65.54
2018-09-15T20:12:37.199Z,65.64
2018-09-15T20:15:06.648Z,65.21
2018-09-15T20:17:34.787Z,65.53
2018-09-15T20:20:02.361Z,65.45
2018-09-15T20:22:31.581Z,66.07
2018-09-15T20:25:00.546Z,66.08
2018-09-15T20:27:29.721Z,66.32
2018-09-15T20:29:58.836Z,65.82
2018-09-15T20:32:27.961Z,66.24
2018-09-15T20:34:57.373Z,66.32
2018-09-15T20:37:26.768Z,66.56
2018-09-15T20:39:55.827Z,66.65
2018-09-15T20:42:24.965Z,67.10
2018-09-15T20:44:54.102Z,67.12
2018-09-15T20:47:23.162Z,67.67
2018-09-15T20:49:52.997Z,68.51
2018-09-15T20:52:23.014Z,68.44
2018-09-15T20:54:52.437Z,67.99
2018-09-15T20:57:21.454Z,68.33
2018-09-15T20:59:50.675Z,67.90
2018-09-15T21:02:19.720Z,68.77
2018-09-15T21:04:49.005Z,68.55
2018-09-15T21:07:18.169Z,68.29
2018-09-15T21:09:47.331Z,68.65
2018-09-15T21:12:16.577Z,68.60
2018-09-15T21:14:46.006Z,68.20
2018-09-15T21:17:15.048Z,68.50
2018-09-15T21:19:44.148Z,68.99
2018-09-15T21:22:13.235Z,68.55
2018-09-15T21:24:42.263Z,69.19
2018-09-15T21:27:11.883Z,68.70
2018-09-15T21:29:40.722Z,68.97
2018-09-15T21:32:09.721Z,68.77
2018-09-15T21:34:38.997Z,69.46
2018-09-15T21:37:07.915Z,69.58
2018-09-15T21:39:37.652Z,69.41
2018-09-15T21:42:06.752Z,69.40
2018-09-15T21:44:35.891Z,69.66
2018-09-15T21:47:05.741Z,69.33
2018-09-15T21:49:35.210Z,69.17
2018-09-15T21:52:04.242Z,69.20
2018-09-15T21:54:33.257Z,68.92
2018-09-15T21:57:02.767Z,68.80
2018-09-15T21:59:31.840Z,69.51
2018-09-15T22:02:01.384Z,68.89
2018-09-15T22:04:31.002Z,69.00
2018-09-15T22:07:00.196Z,68.85
2018-09-15T22:09:29.377Z,69.01
2018-09-15T22:11:59.465Z,68.63
2018-09-15T22:14:28.400Z,69.07
2018-09-15T22:16:57.765Z,68.30
2018-09-15T22:19:26.838Z,68.43
2018-09-15T22:21:56.658Z,68.22
2018-09-15T22:24:25.798Z,68.41
2018-09-15T22:26:54.834Z,67.88
2018-09-15T22:29:23.953Z,67.78
2018-09-15T22:31:54.976Z,67.49
2018-09-15T22:34:24.288Z,67.71
2018-09-15T22:36:53.499Z,68.17
2018-09-15T22:39:22.714Z,67.71
2018-09-15T22:41:51.809Z,67.36
2018-09-15T22:44:20.901Z,67.31
2018-09-15T22:46:50.380Z,67.39
2018-09-15T22:49:19.412Z,66.61
2018-09-15T22:51:48.591Z,66.38
2018-09-15T22:54:24.357Z,66.19
2018-09-15T22:56:53.772Z,66.11
2018-09-15T22:59:23.167Z,66.45
2018-09-15T23:01:52.300Z,66.09
2018-09-15T23:04:21.395Z,66.05
2018-09-15T23:06:50.877Z,65.60
2018-09-15T23:09:20.074Z,66.86
2018-09-15T23:11:49.275Z,66.60
2018-09-15T23:14:18.376Z,66.55
2018-09-15T23:16:47.641Z,66.46
2018-09-15T23:19:16.891Z,67.16
2018-09-15T23:21:46.296Z,66.70
2018-09-15T23:24:15.478Z,67.40
2018-09-15T23:26:44.581Z,67.58
2018-09-15T23:29:13.956Z,67.55
2018-09-15T23:31:42.929Z,67.26
2018-09-15T23:34:12.091Z,67.62
2018-09-15T23:36:41.319Z,67.72
2018-09-15T23:39:10.409Z,68.25
2018-09-15T23:41:39.689Z,68.33
2018-09-15T23:44:09.251Z,68.15
2018-09-15T23:46:39.030Z,68.20
2018-09-15T23:49:08.183Z,68.01
2018-09-15T23:51:37.586Z,68.19
2018-09-15T23:54:06.747Z,68.53
2018-09-15T23:56:36.107Z,68.58
2018-09-15T23:59:05.888Z,67.95
